Time;durP1;ratioP1;P1;durP2;ratioP2;P2;SDS_P1;SDS_P2;PMS_P1;PMS_P2;Temp;Humidity;BMP_temperature;BMP_pressure;BME280_temperature;BME280_humidity;BME280_pressure;Samples;Min_cycle;Max_cycle;Signal;HPM_P1;HPM_P2
2022/07/28 00:00:01;;;;;;;;;;;;;;;;;;351580;28;850;-65
2022/07/28 00:00:12;;;;;;;;;;;;;;;;;;351563;28;792;-65
2022/07/28 00:00:22;;;;;;;;;;;;;;;;;;351442;28;1231;-65
2022/07/28 00:00:32;;;;;;;;;;;;;;;;;;351541;28;948;-65
2022/07/28 00:00:43;;;;;;;;;;;;;;;;;;351577;28;932;-65
2022/07/28 00:00:53;;;;;;;;;;;;;;;;;;351495;28;1075;-65
2022/07/28 00:01:03;;;;;;;;;;;;;;;;;;351518;28;995;-65
2022/07/28 00:01:14;;;;;;;;;;;;;;;;;;351516;28;860;-65
2022/07/28 00:01:24;;;;;;;;;;;;;;;;;;351536;28;991;-64
2022/07/28 00:01:34;;;;;;;;;;;;;;;;;;351567;28;972;-65
2022/07/28 00:01:44;;;;;;;;;;;;;;;;;;351501;28;988;-65
2022/07/28 00:01:54;;;;;;;;;;;;;;;;;;351513;28;1260;-65
2022/07/28 00:02:05;;;;;;;;;;;;;;;;;;351532;28;999;-65
2022/07/28 00:02:16;;;;;;;;;;;;;;;;;;351618;28;828;-65
2022/07/28 00:02:26;;;;;;;;;;;;;;;;;;351522;28;892;-65
2022/07/28 00:02:36;;;;;;;;;;;;;;;;;;351550;28;913;-65
2022/07/28 00:02:46;;;;;;;;;;;;;;;;;;351574;28;979;-65
2022/07/28 00:02:56;;;;;;;;;;;;;;;;;;351458;28;1008;-65
2022/07/28 00:03:06;;;;;;;;;;;;;;;;;;351481;28;908;-64
2022/07/28 00:03:17;;;;;;;;;;;;;;;;;;351522;28;1015;-65
2022/07/28 00:03:27;;;;;;;;;;;;;;;;;;351539;28;912;-65
2022/07/28 00:03:37;;;;;;;;;;;;;;;;;;351576;28;861;-64
2022/07/28 00:03:47;;;;;;;;;;;;;;;;;;351478;28;1049;-64
2022/07/28 00:03:58;;;;;;;;;;;;;;;;;;351556;28;904;-65
2022/07/28 00:04:08;;;;;;;;;;;;;;;;;;351533;28;1007;-65
2022/07/28 00:04:18;;;;;;;;;;;;;;;;;;351567;28;932;-65
2022/07/28 00:04:28;;;;;;;;;;;;;;;;;;351499;28;1005;-65
2022/07/28 00:04:38;;;;;;;;;;;;;;;;;;351534;28;920;-65
2022/07/28 00:04:49;;;;;;;;;;;;;;;;;;351516;28;1066;-65
2022/07/28 00:04:59;;;;;;;;;;;;;;;;;;351484;28;916;-65
2022/07/28 00:05:09;;;;;;;;;;;;;;;;;;351479;28;1011;-65
2022/07/28 00:05:20;;;;;;;;;;;;;;;;;;351549;28;967;-64
2022/07/28 00:05:30;;;;;;;;;;;;;;;;;;351568;28;834;-65
2022/07/28 00:05:40;;;;;;;;;;;;;;;;;;351548;28;861;-64
2022/07/28 00:05:50;;;;;;;;;;;;;;;;;;351472;28;909;-65
2022/07/28 00:06:00;;;;;;;;;;;;;;;;;;350921;28;1307;-65
2022/07/28 00:06:11;;;;;;;;;;;;;;;;;;350897;28;1336;-65
2022/07/28 00:06:21;;;;;;;;;;;;;;;;;;351574;28;908;-65
2022/07/28 00:06:31;;;;;;;;;;;;;;;;;;351451;28;1074;-65
2022/07/28 00:06:41;;;;;;;;;;;;;;;;;;351566;28;786;-65
2022/07/28 00:06:51;;;;;;;;;;;;;;;;;;351550;28;987;-65
2022/07/28 00:07:02;;;;;;;;;;;;;;;;;;351347;28;921;-65
2022/07/28 00:07:12;;;;;;;;;;;;;;;;;;351496;28;1169;-65
2022/07/28 00:07:22;;;;;;;;;;;;;;;;;;351552;27;931;-65
2022/07/28 00:07:33;;;;;;;;;;;;;;;;;;351517;28;921;-65
2022/07/28 00:07:44;;;;;;;;;;;;;;;;;;351505;28;849;-65
2022/07/28 00:07:55;;;;;;;;;;;;;;;;;;351551;28;940;-64
2022/07/28 00:08:05;;;;;;;;;;;;;;;;;;350704;28;1316;-65
2022/07/28 00:08:16;;;;;;;;;;;;;;;;;;351485;28;853;-65
2022/07/28 00:08:26;;;;;;;;;;;;;;;;;;351548;28;909;-64
2022/07/28 00:08:36;;;;;;;;;;;;;;;;;;351491;28;920;-65
2022/07/28 00:08:46;;;;;;;;;;;;;;;;;;351571;28;888;-65
2022/07/28 00:08:56;;;;;;;;;;;;;;;;;;351570;27;861;-65
2022/07/28 00:09:07;;;;;;;;;;;;;;;;;;351423;28;909;-65
2022/07/28 00:09:17;;;;;;;;;;;;;;;;;;351524;28;988;-65
2022/07/28 00:09:27;;;;;;;;;;;;;;;;;;351559;28;861;-65
2022/07/28 00:09:37;;;;;;;;;;;;;;;;;;351442;28;927;-65
2022/07/28 00:09:47;;;;;;;;;;;;;;;;;;351315;28;790;-65
2022/07/28 00:09:58;;;;;;;;;;;;;;;;;;351278;28;971;-65
2022/07/28 00:10:08;;;;;;;;;;;;;;;;;;351276;28;841;-65
2022/07/28 00:10:18;;;;;;;;;;;;;;;;;;351283;28;928;-65
2022/07/28 00:10:31;;;;;;;;;;;;;;;;;;351307;28;865;-65
2022/07/28 00:10:41;;;;;;;;;;;;;;;;;;351531;28;891;-65
2022/07/28 00:10:51;;;;;;;;;;;;;;;;;;351555;28;920;-65
2022/07/28 00:11:01;;;;;;;;;;;;;;;;;;351534;28;964;-65
2022/07/28 00:11:11;;;;;;;;;;;;;;;;;;351418;28;896;-65
2022/07/28 00:11:22;;;;;;;;;;;;;;;;;;351491;27;1046;-65
2022/07/28 00:11:32;;;;;;;;;;;;;;;;;;351547;27;945;-65
2022/07/28 00:11:42;;;;;;;;;;;;;;;;;;351526;28;928;-65
2022/07/28 00:11:52;;;;;;;;;;;;;;;;;;351565;28;802;-65
2022/07/28 00:12:03;;;;;;;;;;;;;;;;;;351521;28;849;-65
2022/07/28 00:12:13;;;;;;;;;;;;;;;;;;351566;28;892;-65
2022/07/28 00:12:23;;;;;;;;;;;;;;;;;;351464;28;980;-65
2022/07/28 00:12:33;;;;;;;;;;;;;;;;;;351546;27;845;-65
2022/07/28 00:12:44;;;;;;;;;;;;;;;;;;350851;28;1835;-65
2022/07/28 00:12:54;;;;;;;;;;;;;;;;;;351459;28;1577;-65
2022/07/28 00:13:04;;;;;;;;;;;;;;;;;;352875;28;1902;-65
2022/07/28 00:13:14;;;;;;;;;;;;;;;;;;352922;28;995;-65
2022/07/28 00:13:24;;;;;;;;;;;;;;;;;;352888;28;928;-64
2022/07/28 00:13:35;;;;;;;;;;;;;;;;;;352896;28;931;-65
2022/07/28 00:13:45;;;;;;;;;;;;;;;;;;352871;28;947;-65
2022/07/28 00:13:56;;;;;;;;;;;;;;;;;;352947;28;908;-65
2022/07/28 00:14:06;;;;;;;;;;;;;;;;;;352945;27;837;-65
2022/07/28 00:14:16;;;;;;;;;;;;;;;;;;352941;28;987;-65
2022/07/28 00:14:26;;;;;;;;;;;;;;;;;;352911;28;991;-65
2022/07/28 00:14:36;;;;;;;;;;;;;;;;;;352889;28;972;-65
2022/07/28 00:14:47;;;;;;;;;;;;;;;;;;351772;28;1982;-65
2022/07/28 00:14:57;;;;;;;;;;;;;;;;;;352937;28;963;-65
2022/07/28 00:15:07;;;;;;;;;;;;;;;;;;352991;28;830;-65
2022/07/28 00:15:17;;;;;;;;;;;;;;;;;;353010;28;908;-65
2022/07/28 00:15:28;;;;;;;;;;;;;;;;;;352799;28;920;-65
2022/07/28 00:15:38;;;;;;;;;;;;;;;;;;352990;28;848;-65
2022/07/28 00:15:48;;;;;;;;;;;;;;;;;;352931;28;952;-65
2022/07/28 00:15:58;;;;;;;;;;;;;;;;;;352940;28;905;-65
2022/07/28 00:16:09;;;;;;;;;;;;;;;;;;352962;28;801;-65
2022/07/28 00:16:19;;;;;;;;;;;;;;;;;;352883;28;897;-65
2022/07/28 00:16:29;;;;;;;;;;;;;;;;;;352910;27;940;-65
2022/07/28 00:16:40;;;;;;;;;;;;;;;;;;352937;28;968;-65
2022/07/28 00:16:50;;;;;;;;;;;;;;;;;;352953;28;936;-65
2022/07/28 00:17:00;;;;;;;;;;;;;;;;;;352961;28;876;-65
2022/07/28 00:17:10;;;;;;;;;;;;;;;;;;352901;28;947;-64
2022/07/28 00:17:20;;;;;;;;;;;;;;;;;;352972;28;916;-65
2022/07/28 00:17:31;;;;;;;;;;;;;;;;;;352829;28;940;-65
2022/07/28 00:17:41;;;;;;;;;;;;;;;;;;352946;28;924;-65
2022/07/28 00:17:51;;;;;;;;;;;;;;;;;;352918;28;921;-65
2022/07/28 00:18:01;;;;;;;;;;;;;;;;;;352855;28;1075;-65
2022/07/28 00:18:11;;;;;;;;;;;;;;;;;;352949;28;840;-65
2022/07/28 00:18:22;;;;;;;;;;;;;;;;;;352939;28;936;-65
2022/07/28 00:18:32;;;;;;;;;;;;;;;;;;352781;28;1017;-65
2022/07/28 00:18:42;;;;;;;;;;;;;;;;;;352954;28;948;-64
2022/07/28 00:18:52;;;;;;;;;;;;;;;;;;352875;28;956;-65
2022/07/28 00:19:02;;;;;;;;;;;;;;;;;;352974;27;821;-65
2022/07/28 00:19:13;;;;;;;;;;;;;;;;;;352942;28;1046;-65
2022/07/28 00:19:23;;;;;;;;;;;;;;;;;;352948;28;781;-65
2022/07/28 00:19:33;;;;;;;;;;;;;;;;;;352874;28;915;-65
2022/07/28 00:19:43;;;;;;;;;;;;;;;;;;352825;28;1094;-65
2022/07/28 00:19:53;;;;;;;;;;;;;;;;;;352928;28;971;-65
2022/07/28 00:20:04;;;;;;;;;;;;;;;;;;352963;28;790;-65
2022/07/28 00:20:15;;;;;;;;;;;;;;;;;;352875;28;1262;-65
2022/07/28 00:20:26;;;;;;;;;;;;;;;;;;352964;28;777;-64
2022/07/28 00:20:36;;;;;;;;;;;;;;;;;;352892;28;948;-65
2022/07/28 00:20:47;;;;;;;;;;;;;;;;;;352918;28;912;-65
2022/07/28 00:20:57;;;;;;;;;;;;;;;;;;352939;28;967;-65
2022/07/28 00:21:07;;;;;;;;;;;;;;;;;;352943;28;944;-65
2022/07/28 00:21:18;;;;;;;;;;;;;;;;;;352915;28;1002;-65
2022/07/28 00:21:28;;;;;;;;;;;;;;;;;;352769;27;1210;-65
2022/07/28 00:21:38;;;;;;;;;;;;;;;;;;352850;28;1055;-65
2022/07/28 00:21:48;;;;;;;;;;;;;;;;;;352918;28;786;-65
2022/07/28 00:21:59;;;;;;;;;;;;;;;;;;352898;28;765;-64
2022/07/28 00:22:09;;;;;;;;;;;;;;;;;;352917;28;909;-65
2022/07/28 00:22:19;;;;;;;;;;;;;;;;;;352875;28;951;-65
2022/07/28 00:22:29;;;;;;;;;;;;;;;;;;352926;27;952;-65
2022/07/28 00:22:40;;;;;;;;;;;;;;;;;;352919;28;928;-65
2022/07/28 00:22:51;;;;;;;;;;;;;;;;;;351017;28;1423;-65
2022/07/28 00:23:01;;;;;;;;;;;;;;;;;;350408;28;1004;-65
2022/07/28 00:23:11;;;;;;;;;;;;;;;;;;350090;28;1192;-65
2022/07/28 00:23:21;;;;;;;;;;;;;;;;;;350185;28;900;-65
2022/07/28 00:23:31;;;;;;;;;;;;;;;;;;350091;28;901;-65
2022/07/28 00:23:41;;;;;;;;;;;;;;;;;;350062;28;875;-65
2022/07/28 00:23:52;;;;;;;;;;;;;;;;;;350118;28;972;-65
2022/07/28 00:24:02;;;;;;;;;;;;;;;;;;350059;28;918;-64
2022/07/28 00:24:12;;;;;;;;;;;;;;;;;;350071;28;1070;-65
2022/07/28 00:24:23;;;;;;;;;;;;;;;;;;350117;28;921;-65
2022/07/28 00:24:33;;;;;;;;;;;;;;;;;;350108;28;936;-65
2022/07/28 00:24:43;;;;;;;;;;;;;;;;;;350141;28;939;-65
2022/07/28 00:24:54;;;;;;;;;;;;;;;;;;350106;28;872;-65
2022/07/28 00:25:04;;;;;;;;;;;;;;;;;;350174;28;1039;-65
2022/07/28 00:25:14;;;;;;;;;;;;;;;;;;350166;28;885;-65
2022/07/28 00:25:24;;;;;;;;;;;;;;;;;;350130;28;1007;-65
2022/07/28 00:25:35;;;;;;;;;;;;;;;;;;350427;28;1335;-65
2022/07/28 00:25:45;;;;;;;;;;;;;;;;;;351449;28;971;-65
2022/07/28 00:25:55;;;;;;;;;;;;;;;;;;351482;28;1000;-65
2022/07/28 00:26:06;;;;;;;;;;;;;;;;;;351537;28;928;-65
2022/07/28 00:26:16;;;;;;;;;;;;;;;;;;351579;28;837;-65
2022/07/28 00:26:26;;;;;;;;;;;;;;;;;;351517;28;967;-65
2022/07/28 00:26:36;;;;;;;;;;;;;;;;;;351466;28;800;-65
2022/07/28 00:26:47;;;;;;;;;;;;;;;;;;351497;28;928;-65
2022/07/28 00:26:57;;;;;;;;;;;;;;;;;;351508;28;913;-65
2022/07/28 00:27:08;;;;;;;;;;;;;;;;;;351560;28;917;-65
2022/07/28 00:27:18;;;;;;;;;;;;;;;;;;351457;28;1085;-65
2022/07/28 00:27:28;;;;;;;;;;;;;;;;;;351526;28;960;-65
2022/07/28 00:27:38;;;;;;;;;;;;;;;;;;351493;28;940;-65
2022/07/28 00:27:49;;;;;;;;;;;;;;;;;;351535;28;857;-65
2022/07/28 00:27:59;;;;;;;;;;;;;;;;;;351462;28;916;-65
2022/07/28 00:28:09;;;;;;;;;;;;;;;;;;351462;28;1450;-65
2022/07/28 00:28:19;;;;;;;;;;;;;;;;;;351523;28;971;-64
2022/07/28 00:28:29;;;;;;;;;;;;;;;;;;351550;28;1733;-65
2022/07/28 00:28:40;;;;;;;;;;;;;;;;;;351481;28;936;-65
2022/07/28 00:28:50;;;;;;;;;;;;;;;;;;351532;28;905;-65
2022/07/28 00:29:00;;;;;;;;;;;;;;;;;;351520;28;924;-65
2022/07/28 00:29:10;;;;;;;;;;;;;;;;;;351496;28;904;-65
2022/07/28 00:29:21;;;;;;;;;;;;;;;;;;351473;28;881;-65
2022/07/28 00:29:31;;;;;;;;;;;;;;;;;;351527;28;749;-64
2022/07/28 00:29:42;;;;;;;;;;;;;;;;;;351534;28;979;-65
2022/07/28 00:29:52;;;;;;;;;;;;;;;;;;351572;28;912;-65
2022/07/28 00:30:03;;;;;;;;;;;;;;;;;;350106;28;1308;-65
2022/07/28 00:30:14;;;;;;;;;;;;;;;;;;350143;28;1109;-65
2022/07/28 00:30:24;;;;;;;;;;;;;;;;;;350075;28;1004;-65
2022/07/28 00:30:34;;;;;;;;;;;;;;;;;;350156;28;846;-65
2022/07/28 00:30:44;;;;;;;;;;;;;;;;;;350104;28;1007;-65
2022/07/28 00:30:54;;;;;;;;;;;;;;;;;;350138;28;960;-65
2022/07/28 00:31:06;;;;;;;;;;;;;;;;;;350126;28;857;-64
2022/07/28 00:31:16;;;;;;;;;;;;;;;;;;350107;28;853;-65
2022/07/28 00:31:26;;;;;;;;;;;;;;;;;;350056;28;964;-65
2022/07/28 00:31:36;;;;;;;;;;;;;;;;;;350114;28;980;-65
2022/07/28 00:31:47;;;;;;;;;;;;;;;;;;350040;28;1054;-65
2022/07/28 00:31:57;;;;;;;;;;;;;;;;;;350153;28;865;-65
2022/07/28 00:32:07;;;;;;;;;;;;;;;;;;349998;28;959;-65
2022/07/28 00:32:19;;;;;;;;;;;;;;;;;;350149;28;861;-65
2022/07/28 00:32:29;;;;;;;;;;;;;;;;;;350129;28;976;-65
2022/07/28 00:32:39;;;;;;;;;;;;;;;;;;350051;28;925;-65
2022/07/28 00:32:49;;;;;;;;;;;;;;;;;;350094;28;991;-65
2022/07/28 00:33:00;;;;;;;;;;;;;;;;;;350044;28;1898;-65
2022/07/28 00:33:10;;;;;;;;;;;;;;;;;;350088;28;940;-64
2022/07/28 00:33:20;;;;;;;;;;;;;;;;;;350039;28;971;-65
2022/07/28 00:33:30;;;;;;;;;;;;;;;;;;350121;28;976;-65
2022/07/28 00:33:41;;;;;;;;;;;;;;;;;;350426;28;1360;-65
2022/07/28 00:33:51;;;;;;;;;;;;;;;;;;351475;28;916;-65
2022/07/28 00:34:01;;;;;;;;;;;;;;;;;;351460;28;928;-64
2022/07/28 00:34:11;;;;;;;;;;;;;;;;;;351501;28;1130;-64
2022/07/28 00:34:21;;;;;;;;;;;;;;;;;;351498;28;868;-65
2022/07/28 00:34:32;;;;;;;;;;;;;;;;;;351458;28;1043;-65
2022/07/28 00:34:42;;;;;;;;;;;;;;;;;;351424;28;968;-65
2022/07/28 00:34:52;;;;;;;;;;;;;;;;;;351508;28;912;-65
2022/07/28 00:35:03;;;;;;;;;;;;;;;;;;351512;28;925;-65
2022/07/28 00:35:13;;;;;;;;;;;;;;;;;;351477;28;947;-65
2022/07/28 00:35:24;;;;;;;;;;;;;;;;;;351510;28;857;-65
2022/07/28 00:35:34;;;;;;;;;;;;;;;;;;351482;28;1008;-65
2022/07/28 00:35:44;;;;;;;;;;;;;;;;;;351558;28;928;-65
2022/07/28 00:35:54;;;;;;;;;;;;;;;;;;350500;28;1894;-65
2022/07/28 00:36:05;;;;;;;;;;;;;;;;;;350845;28;1338;-65
2022/07/28 00:36:16;;;;;;;;;;;;;;;;;;351482;28;939;-64
2022/07/28 00:36:26;;;;;;;;;;;;;;;;;;351481;28;932;-65
2022/07/28 00:36:36;;;;;;;;;;;;;;;;;;351460;28;980;-65
2022/07/28 00:36:47;;;;;;;;;;;;;;;;;;351431;28;1376;-65
2022/07/28 00:36:57;;;;;;;;;;;;;;;;;;351397;28;1044;-65
2022/07/28 00:37:07;;;;;;;;;;;;;;;;;;351503;28;953;-64
2022/07/28 00:37:17;;;;;;;;;;;;;;;;;;351512;28;995;-64
2022/07/28 00:37:27;;;;;;;;;;;;;;;;;;351429;28;972;-65
2022/07/28 00:37:38;;;;;;;;;;;;;;;;;;351480;28;932;-65
2022/07/28 00:37:48;;;;;;;;;;;;;;;;;;351473;28;1047;-65
2022/07/28 00:37:58;;;;;;;;;;;;;;;;;;351488;28;940;-65
2022/07/28 00:38:08;;;;;;;;;;;;;;;;;;351500;28;1015;-65
2022/07/28 00:38:19;;;;;;;;;;;;;;;;;;351391;28;1011;-65
2022/07/28 00:38:29;;;;;;;;;;;;;;;;;;351508;28;924;-65
2022/07/28 00:38:39;;;;;;;;;;;;;;;;;;351484;28;917;-64
2022/07/28 00:38:50;;;;;;;;;;;;;;;;;;351437;28;921;-65
2022/07/28 00:39:00;;;;;;;;;;;;;;;;;;351477;28;892;-65
2022/07/28 00:39:10;;;;;;;;;;;;;;;;;;351533;28;874;-64
2022/07/28 00:39:21;;;;;;;;;;;;;;;;;;351521;28;916;-65
2022/07/28 00:39:31;;;;;;;;;;;;;;;;;;351529;28;833;-65
2022/07/28 00:39:42;;;;;;;;;;;;;;;;;;351515;28;865;-65
2022/07/28 00:39:52;;;;;;;;;;;;;;;;;;351437;28;920;-65
2022/07/28 00:40:02;;;;;;;;;;;;;;;;;;351513;28;905;-64
2022/07/28 00:40:13;;;;;;;;;;;;;;;;;;351519;28;912;-65
2022/07/28 00:41:09;;;;;;;;;;;;;;;;;;351339;28;982;-65
2022/07/28 00:41:11;;;;;;;;;;;;;;;;;;351451;28;880;-65
2022/07/28 00:41:21;;;;;;;;;;;;;;;;;;351441;28;940;-65
2022/07/28 00:41:32;;;;;;;;;;;;;;;;;;351507;28;904;-65
2022/07/28 00:41:42;;;;;;;;;;;;;;;;;;351514;28;937;-65
2022/07/28 00:41:52;;;;;;;;;;;;;;;;;;351492;28;952;-65
2022/07/28 00:42:02;;;;;;;;;;;;;;;;;;351486;28;924;-65
2022/07/28 00:42:16;;;;;;;;;;;;;;;;;;351460;28;1004;-65
2022/07/28 00:42:26;;;;;;;;;;;;;;;;;;351486;28;948;-65
2022/07/28 00:42:36;;;;;;;;;;;;;;;;;;351410;28;987;-65
2022/07/28 00:42:46;;;;;;;;;;;;;;;;;;351513;28;908;-65
2022/07/28 00:42:57;;;;;;;;;;;;;;;;;;351479;27;924;-65
2022/07/28 00:43:07;;;;;;;;;;;;;;;;;;351413;28;1016;-65
2022/07/28 00:43:17;;;;;;;;;;;;;;;;;;351496;28;933;-65
2022/07/28 00:43:27;;;;;;;;;;;;;;;;;;351494;27;929;-65
2022/07/28 00:43:37;;;;;;;;;;;;;;;;;;351530;28;928;-65
2022/07/28 00:43:49;;;;;;;;;;;;;;;;;;351454;28;960;-65
2022/07/28 00:43:59;;;;;;;;;;;;;;;;;;351423;28;988;-65
2022/07/28 00:44:10;;;;;;;;;;;;;;;;;;351520;28;889;-65
2022/07/28 00:44:20;;;;;;;;;;;;;;;;;;351495;28;924;-65
2022/07/28 00:44:30;;;;;;;;;;;;;;;;;;351454;28;928;-64
2022/07/28 00:44:41;;;;;;;;;;;;;;;;;;351454;28;1004;-65
2022/07/28 00:44:51;;;;;;;;;;;;;;;;;;351417;28;996;-65
2022/07/28 00:45:02;;;;;;;;;;;;;;;;;;351498;28;845;-65
2022/07/28 00:45:12;;;;;;;;;;;;;;;;;;351525;28;830;-65
2022/07/28 00:45:22;;;;;;;;;;;;;;;;;;351462;28;912;-65
2022/07/28 00:45:33;;;;;;;;;;;;;;;;;;351475;28;1003;-65
2022/07/28 00:45:43;;;;;;;;;;;;;;;;;;351441;28;1067;-65
2022/07/28 00:45:53;;;;;;;;;;;;;;;;;;351467;28;1007;-65
2022/07/28 00:46:03;;;;;;;;;;;;;;;;;;351440;28;924;-65
2022/07/28 00:46:14;;;;;;;;;;;;;;;;;;351512;28;857;-65
2022/07/28 00:46:25;;;;;;;;;;;;;;;;;;351515;28;948;-64
2022/07/28 00:46:35;;;;;;;;;;;;;;;;;;351436;28;886;-65
2022/07/28 00:46:45;;;;;;;;;;;;;;;;;;351481;28;872;-65
2022/07/28 00:46:55;;;;;;;;;;;;;;;;;;351514;27;780;-64
2022/07/28 00:47:06;;;;;;;;;;;;;;;;;;351451;28;984;-65
2022/07/28 00:47:16;;;;;;;;;;;;;;;;;;351436;28;972;-65
2022/07/28 00:47:26;;;;;;;;;;;;;;;;;;351509;28;968;-65
2022/07/28 00:47:36;;;;;;;;;;;;;;;;;;351525;28;987;-65
2022/07/28 00:47:46;;;;;;;;;;;;;;;;;;351481;28;944;-65
2022/07/28 00:47:57;;;;;;;;;;;;;;;;;;351475;28;821;-64
2022/07/28 00:48:07;;;;;;;;;;;;;;;;;;351460;28;920;-65
2022/07/28 00:48:17;;;;;;;;;;;;;;;;;;351500;27;916;-65
2022/07/28 00:48:27;;;;;;;;;;;;;;;;;;351516;28;908;-64
2022/07/28 00:48:38;;;;;;;;;;;;;;;;;;351389;28;1545;-65
2022/07/28 00:48:50;;;;;;;;;;;;;;;;;;351433;28;948;-65
2022/07/28 00:49:00;;;;;;;;;;;;;;;;;;351569;28;808;-65
2022/07/28 00:49:12;;;;;;;;;;;;;;;;;;351472;28;853;-65
2022/07/28 00:49:22;;;;;;;;;;;;;;;;;;351468;28;964;-65
2022/07/28 00:49:33;;;;;;;;;;;;;;;;;;351466;28;912;-65
2022/07/28 00:49:44;;;;;;;;;;;;;;;;;;351461;28;980;-65
2022/07/28 00:49:54;;;;;;;;;;;;;;;;;;351498;28;916;-65
2022/07/28 00:50:05;;;;;;;;;;;;;;;;;;351413;28;940;-65
2022/07/28 00:50:17;;;;;;;;;;;;;;;;;;351486;28;1004;-65
2022/07/28 00:50:27;;;;;;;;;;;;;;;;;;351542;28;857;-65
2022/07/28 00:50:38;;;;;;;;;;;;;;;;;;351469;27;972;-65
2022/07/28 00:50:48;;;;;;;;;;;;;;;;;;350659;28;1290;-65
2022/07/28 00:50:58;;;;;;;;;;;;;;;;;;351303;28;1598;-65
2022/07/28 00:51:09;;;;;;;;;;;;;;;;;;351450;28;944;-65
2022/07/28 00:51:20;;;;;;;;;;;;;;;;;;351463;28;1064;-65
2022/07/28 00:51:30;;;;;;;;;;;;;;;;;;351442;28;924;-65
2022/07/28 00:51:41;;;;;;;;;;;;;;;;;;351506;28;979;-65
2022/07/28 00:51:51;;;;;;;;;;;;;;;;;;351465;28;960;-65
2022/07/28 00:52:03;;;;;;;;;;;;;;;;;;351440;28;841;-65
2022/07/28 00:52:15;;;;;;;;;;;;;;;;;;351458;28;1023;-65
2022/07/28 00:52:26;;;;;;;;;;;;;;;;;;351530;28;956;-64
2022/07/28 00:52:36;;;;;;;;;;;;;;;;;;351426;28;1015;-65
2022/07/28 00:52:46;;;;;;;;;;;;;;;;;;351477;28;979;-65
2022/07/28 00:52:57;;;;;;;;;;;;;;;;;;351419;28;853;-65
2022/07/28 00:53:07;;;;;;;;;;;;;;;;;;351336;28;1910;-65
2022/07/28 00:53:17;;;;;;;;;;;;;;;;;;350669;28;1862;-65
2022/07/28 00:53:28;;;;;;;;;;;;;;;;;;352873;28;937;-65
2022/07/28 00:53:38;;;;;;;;;;;;;;;;;;352823;28;1008;-64
2022/07/28 00:53:49;;;;;;;;;;;;;;;;;;352899;28;932;-65
2022/07/28 00:53:59;;;;;;;;;;;;;;;;;;352956;28;837;-65
2022/07/28 00:54:09;;;;;;;;;;;;;;;;;;352821;28;924;-65
2022/07/28 00:54:19;;;;;;;;;;;;;;;;;;352916;28;912;-65
2022/07/28 00:54:31;;;;;;;;;;;;;;;;;;352868;28;929;-65
2022/07/28 00:54:41;;;;;;;;;;;;;;;;;;352821;28;916;-65
2022/07/28 00:54:51;;;;;;;;;;;;;;;;;;352866;28;1023;-65
2022/07/28 00:55:02;;;;;;;;;;;;;;;;;;352859;28;916;-65
2022/07/28 00:55:13;;;;;;;;;;;;;;;;;;352797;27;994;-65
2022/07/28 00:55:23;;;;;;;;;;;;;;;;;;352887;28;971;-65
2022/07/28 00:55:33;;;;;;;;;;;;;;;;;;352893;28;916;-65
2022/07/28 00:55:43;;;;;;;;;;;;;;;;;;352822;28;999;-65
2022/07/28 00:55:54;;;;;;;;;;;;;;;;;;352952;28;789;-65
2022/07/28 00:56:05;;;;;;;;;;;;;;;;;;352929;28;790;-65
2022/07/28 00:56:15;;;;;;;;;;;;;;;;;;351950;28;1845;-65
2022/07/28 00:56:25;;;;;;;;;;;;;;;;;;350937;28;1631;-64
2022/07/28 00:56:35;;;;;;;;;;;;;;;;;;350577;28;1809;-65
2022/07/28 00:56:46;;;;;;;;;;;;;;;;;;352877;28;897;-65
2022/07/28 00:56:56;;;;;;;;;;;;;;;;;;352850;28;869;-65
2022/07/28 00:57:06;;;;;;;;;;;;;;;;;;352831;28;994;-65
2022/07/28 00:57:16;;;;;;;;;;;;;;;;;;352873;28;836;-65
2022/07/28 00:57:27;;;;;;;;;;;;;;;;;;352891;28;916;-64
2022/07/28 00:57:39;;;;;;;;;;;;;;;;;;352859;28;833;-65
2022/07/28 00:57:49;;;;;;;;;;;;;;;;;;352940;27;857;-65
2022/07/28 00:57:59;;;;;;;;;;;;;;;;;;352893;28;924;-65
2022/07/28 00:58:10;;;;;;;;;;;;;;;;;;352799;28;1039;-65
2022/07/28 00:58:20;;;;;;;;;;;;;;;;;;352893;28;900;-65
2022/07/28 00:58:30;;;;;;;;;;;;;;;;;;352913;28;822;-65
2022/07/28 00:58:40;;;;;;;;;;;;;;;;;;352925;28;1817;-65
2022/07/28 00:58:51;;;;;;;;;;;;;;;;;;352827;28;928;-65
2022/07/28 00:59:01;;;;;;;;;;;;;;;;;;352896;28;1065;-65
2022/07/28 00:59:11;;;;;;;;;;;;;;;;;;351029;28;1751;-64
2022/07/28 00:59:21;;;;;;;;;;;;;;;;;;351487;28;841;-64
2022/07/28 00:59:32;;;;;;;;;;;;;;;;;;351406;28;913;-65
2022/07/28 00:59:42;;;;;;;;;;;;;;;;;;351469;28;952;-65
2022/07/28 00:59:52;;;;;;;;;;;;;;;;;;351437;28;909;-65
2022/07/28 01:00:03;;;;;;;;;;;;;;;;;;351456;28;920;-64
2022/07/28 01:00:14;;;;;;;;;;;;;;;;;;351436;28;905;-65
2022/07/28 01:00:24;;;;;;;;;;;;;;;;;;351606;28;1850;-65
2022/07/28 01:00:34;;;;;;;;;;;;;;;;;;352893;28;948;-65
2022/07/28 01:00:45;;;;;;;;;;;;;;;;;;352836;28;948;-65
2022/07/28 01:00:55;;;;;;;;;;;;;;;;;;352854;28;873;-65
2022/07/28 01:01:06;;;;;;;;;;;;;;;;;;352842;28;1079;-65
2022/07/28 01:01:18;;;;;;;;;;;;;;;;;;352773;28;957;-65
2022/07/28 01:01:28;;;;;;;;;;;;;;;;;;352865;28;1059;-65
2022/07/28 01:01:39;;;;;;;;;;;;;;;;;;352884;28;893;-65
2022/07/28 01:01:49;;;;;;;;;;;;;;;;;;352864;28;968;-65
2022/07/28 01:02:00;;;;;;;;;;;;;;;;;;352819;27;975;-65
2022/07/28 01:02:10;;;;;;;;;;;;;;;;;;352878;27;952;-65
2022/07/28 01:02:20;;;;;;;;;;;;;;;;;;352851;28;944;-64
2022/07/28 01:02:30;;;;;;;;;;;;;;;;;;352853;28;949;-65
2022/07/28 01:02:41;;;;;;;;;;;;;;;;;;352845;28;944;-65
2022/07/28 01:02:52;;;;;;;;;;;;;;;;;;352832;28;1003;-65
2022/07/28 01:03:03;;;;;;;;;;;;;;;;;;352862;28;924;-64
2022/07/28 01:03:14;;;;;;;;;;;;;;;;;;352878;28;964;-65
2022/07/28 01:03:24;;;;;;;;;;;;;;;;;;352771;28;924;-65
2022/07/28 01:03:36;;;;;;;;;;;;;;;;;;352875;28;960;-65
2022/07/28 01:03:52;;;;;;;;;;;;;;;;;;352855;28;1023;-65
2022/07/28 01:04:03;;;;;;;;;;;;;;;;;;352859;28;921;-65
2022/07/28 01:04:13;;;;;;;;;;;;;;;;;;352889;28;877;-65
2022/07/28 01:04:24;;;;;;;;;;;;;;;;;;352811;28;988;-65
2022/07/28 01:04:34;;;;;;;;;;;;;;;;;;351197;28;1873;-65
2022/07/28 01:04:45;;;;;;;;;;;;;;;;;;350275;28;1683;-65
2022/07/28 01:04:55;;;;;;;;;;;;;;;;;;352637;27;841;-65
2022/07/28 01:05:05;;;;;;;;;;;;;;;;;;352869;28;845;-65
2022/07/28 01:05:16;;;;;;;;;;;;;;;;;;352886;28;1019;-65
2022/07/28 01:05:34;;;;;;;;;;;;;;;;;;352750;28;932;-65
2022/07/28 01:05:51;;;;;;;;;;;;;;;;;;352886;28;936;-65
2022/07/28 01:06:09;;;;;;;;;;;;;;;;;;351198;28;1296;-64
2022/07/28 01:06:28;;;;;;;;;;;;;;;;;;351431;28;940;-65
2022/07/28 01:06:48;;;;;;;;;;;;;;;;;;351485;28;988;-65
2022/07/28 01:07:17;;;;;;;;;;;;;;;;;;351395;28;987;-65
2022/07/28 01:07:35;;;;;;;;;;;;;;;;;;351374;28;924;-65
2022/07/28 01:07:50;;;;;;;;;;;;;;;;;;351425;28;892;-64
2022/07/28 01:08:04;;;;;;;;;;;;;;;;;;351443;28;811;-65
2022/07/28 01:08:21;;;;;;;;;;;;;;;;;;351459;28;896;-65
2022/07/28 01:08:54;;;;;;;;;;;;;;;;;;351380;28;967;-65
2022/07/28 01:09:20;;;;;;;;;;;;;;;;;;351420;28;916;-65
2022/07/28 01:09:30;;;;;;;;;;;;;;;;;;351401;28;1213;-64
2022/07/28 01:09:44;;;;;;;;;;;;;;;;;;351403;28;924;-65
2022/07/28 01:10:18;;;;;;;;;;;;;;;;;;351424;28;1100;-65
2022/07/28 01:10:35;;;;;;;;;;;;;;;;;;351434;28;948;-65
2022/07/28 01:11:05;;;;;;;;;;;;;;;;;;351476;28;797;-65
2022/07/28 01:11:29;;;;;;;;;;;;;;;;;;351450;28;1106;-65
2022/07/28 01:11:49;;;;;;;;;;;;;;;;;;351349;28;789;-65
2022/07/28 01:12:23;;;;;;;;;;;;;;;;;;351431;28;916;-65
2022/07/28 01:12:45;;;;;;;;;;;;;;;;;;351416;28;932;-65
2022/07/28 01:13:03;;;;;;;;;;;;;;;;;;351403;28;912;-65
2022/07/28 01:13:21;;;;;;;;;;;;;;;;;;351489;28;916;-65
2022/07/28 01:13:37;;;;;;;;;;;;;;;;;;351482;28;868;-65
2022/07/28 01:13:59;;;;;;;;;;;;;;;;;;351345;28;1019;-65
2022/07/28 01:14:16;;;;;;;;;;;;;;;;;;351415;28;857;-65
2022/07/28 01:14:37;;;;;;;;;;;;;;;;;;351482;28;983;-65
2022/07/28 01:14:49;;;;;;;;;;;;;;;;;;351355;28;1076;-65
2022/07/28 01:15:28;;;;;;;;;;;;;;;;;;351454;28;790;-64
2022/07/28 01:15:45;;;;;;;;;;;;;;;;;;348543;28;980;-65
2022/07/28 01:16:04;;;;;;;;;;;;;;;;;;348508;28;972;-64
2022/07/28 01:16:14;;;;;;;;;;;;;;;;;;351426;28;904;-65
2022/07/28 01:16:26;;;;;;;;;;;;;;;;;;351436;28;936;-65
2022/07/28 01:16:40;;;;;;;;;;;;;;;;;;351429;28;944;-65
2022/07/28 01:17:10;;;;;;;;;;;;;;;;;;351418;28;936;-64
2022/07/28 01:17:43;;;;;;;;;;;;;;;;;;350852;28;1119;-65
2022/07/28 01:18:01;;;;;;;;;;;;;;;;;;351346;28;999;-65
2022/07/28 01:18:16;;;;;;;;;;;;;;;;;;351510;28;758;-64
2022/07/28 01:18:30;;;;;;;;;;;;;;;;;;351367;28;1090;-65
2022/07/28 01:18:43;;;;;;;;;;;;;;;;;;351409;28;1011;-65
2022/07/28 01:18:56;;;;;;;;;;;;;;;;;;351494;27;939;-65
2022/07/28 01:19:09;;;;;;;;;;;;;;;;;;351404;28;934;-65
2022/07/28 01:19:34;;;;;;;;;;;;;;;;;;351412;28;1098;-65
2022/07/28 01:19:51;;;;;;;;;;;;;;;;;;351439;28;769;-65
2022/07/28 01:20:06;;;;;;;;;;;;;;;;;;351427;28;912;-65
2022/07/28 01:20:19;;;;;;;;;;;;;;;;;;351449;28;871;-65
2022/07/28 01:20:34;;;;;;;;;;;;;;;;;;351477;28;1011;-65
2022/07/28 01:20:59;;;;;;;;;;;;;;;;;;350208;28;1303;-65
2022/07/28 01:21:14;;;;;;;;;;;;;;;;;;350087;28;845;-65
2022/07/28 01:21:27;;;;;;;;;;;;;;;;;;349682;28;1227;-65
2022/07/28 01:21:39;;;;;;;;;;;;;;;;;;349988;28;980;-64
2022/07/28 01:21:50;;;;;;;;;;;;;;;;;;349991;28;853;-65
2022/07/28 01:22:02;;;;;;;;;;;;;;;;;;349972;28;920;-65
2022/07/28 01:22:14;;;;;;;;;;;;;;;;;;350004;28;920;-65
2022/07/28 01:22:28;;;;;;;;;;;;;;;;;;350046;28;1003;-65
2022/07/28 01:23:04;;;;;;;;;;;;;;;;;;350011;28;948;-65